sensor_id;sensor_type;location;lat;lon;timestamp;P1;durP1;ratioP1;P2;durP2;ratioP2
71080;SDS011;58740;50.672;18.690;2023-02-21T00:02:51;4.60;;;1.10;;
71080;SDS011;58740;50.672;18.690;2023-02-21T00:05:38;5.10;;;1.50;;
71080;SDS011;58740;50.672;18.690;2023-02-21T00:08:24;4.60;;;1.40;;
71080;SDS011;58740;50.672;18.690;2023-02-21T00:11:10;3.90;;;1.20;;
71080;SDS011;58740;50.672;18.690;2023-02-21T00:13:57;4.00;;;1.60;;
71080;SDS011;58740;50.672;18.690;2023-02-21T00:16:43;5.00;;;1.60;;
71080;SDS011;58740;50.672;18.690;2023-02-21T00:19:30;5.20;;;1.60;;
71080;SDS011;58740;50.672;18.690;2023-02-21T00:22:16;5.40;;;1.80;;
71080;SDS011;58740;50.672;18.690;2023-02-21T00:25:03;5.00;;;1.40;;
71080;SDS011;58740;50.672;18.690;2023-02-21T00:27:50;6.30;;;1.80;;
71080;SDS011;58740;50.672;18.690;2023-02-21T00:30:37;5.70;;;1.50;;
71080;SDS011;58740;50.672;18.690;2023-02-21T00:33:24;4.00;;;1.50;;
71080;SDS011;58740;50.672;18.690;2023-02-21T00:36:15;4.70;;;1.30;;
71080;SDS011;58740;50.672;18.690;2023-02-21T00:39:02;2.80;;;1.10;;
71080;SDS011;58740;50.672;18.690;2023-02-21T00:41:48;3.40;;;1.10;;
71080;SDS011;58740;50.672;18.690;2023-02-21T00:44:35;4.30;;;1.40;;
71080;SDS011;58740;50.672;18.690;2023-02-21T00:47:21;2.80;;;1.10;;
71080;SDS011;58740;50.672;18.690;2023-02-21T00:50:08;5.50;;;1.60;;
71080;SDS011;58740;50.672;18.690;2023-02-21T00:52:55;4.90;;;1.20;;
71080;SDS011;58740;50.672;18.690;2023-02-21T00:55:42;4.60;;;1.30;;
71080;SDS011;58740;50.672;18.690;2023-02-21T00:58:28;6.80;;;1.90;;
71080;SDS011;58740;50.672;18.690;2023-02-21T01:01:15;5.60;;;1.90;;
71080;SDS011;58740;50.672;18.690;2023-02-21T01:04:01;5.90;;;2.30;;
71080;SDS011;58740;50.672;18.690;2023-02-21T01:06:50;6.80;;;1.50;;
71080;SDS011;58740;50.672;18.690;2023-02-21T01:09:36;4.40;;;1.70;;
71080;SDS011;58740;50.672;18.690;2023-02-21T01:12:23;3.80;;;1.10;;
71080;SDS011;58740;50.672;18.690;2023-02-21T01:15:09;6.10;;;1.50;;
71080;SDS011;58740;50.672;18.690;2023-02-21T01:17:56;5.00;;;1.30;;
71080;SDS011;58740;50.672;18.690;2023-02-21T01:20:42;4.40;;;1.70;;
71080;SDS011;58740;50.672;18.690;2023-02-21T01:23:30;7.60;;;2.00;;
71080;SDS011;58740;50.672;18.690;2023-02-21T01:26:17;4.90;;;1.40;;
71080;SDS011;58740;50.672;18.690;2023-02-21T01:29:03;6.00;;;1.80;;
71080;SDS011;58740;50.672;18.690;2023-02-21T01:31:50;5.30;;;1.50;;
71080;SDS011;58740;50.672;18.690;2023-02-21T01:34:36;4.80;;;1.20;;
71080;SDS011;58740;50.672;18.690;2023-02-21T01:37:23;4.10;;;1.40;;
71080;SDS011;58740;50.672;18.690;2023-02-21T01:40:14;3.20;;;1.00;;
71080;SDS011;58740;50.672;18.690;2023-02-21T01:43:01;3.90;;;1.10;;
71080;SDS011;58740;50.672;18.690;2023-02-21T01:45:49;2.80;;;1.20;;
71080;SDS011;58740;50.672;18.690;2023-02-21T01:48:39;3.90;;;0.90;;
71080;SDS011;58740;50.672;18.690;2023-02-21T01:51:27;4.20;;;1.10;;
71080;SDS011;58740;50.672;18.690;2023-02-21T01:54:19;2.90;;;1.00;;
71080;SDS011;58740;50.672;18.690;2023-02-21T01:57:07;6.30;;;1.50;;
71080;SDS011;58740;50.672;18.690;2023-02-21T01:59:56;3.00;;;1.20;;
71080;SDS011;58740;50.672;18.690;2023-02-21T02:03:01;5.60;;;1.40;;
71080;SDS011;58740;50.672;18.690;2023-02-21T02:05:53;3.00;;;1.30;;
71080;SDS011;58740;50.672;18.690;2023-02-21T02:08:41;4.90;;;1.70;;
71080;SDS011;58740;50.672;18.690;2023-02-21T02:18:14;3.70;;;1.00;;
71080;SDS011;58740;50.672;18.690;2023-02-21T02:33:44;5.90;;;1.90;;
71080;SDS011;58740;50.672;18.690;2023-02-21T02:36:32;7.20;;;2.10;;
71080;SDS011;58740;50.672;18.690;2023-02-21T02:39:23;5.10;;;2.20;;
71080;SDS011;58740;50.672;18.690;2023-02-21T02:42:08;6.20;;;2.80;;
71080;SDS011;58740;50.672;18.690;2023-02-21T02:45:04;8.40;;;3.10;;
71080;SDS011;58740;50.672;18.690;2023-02-21T02:47:43;8.40;;;3.30;;
71080;SDS011;58740;50.672;18.690;2023-02-21T02:50:15;4.60;;;2.00;;
71080;SDS011;58740;50.672;18.690;2023-02-21T02:52:52;4.90;;;1.60;;
71080;SDS011;58740;50.672;18.690;2023-02-21T02:55:31;4.90;;;2.20;;
71080;SDS011;58740;50.672;18.690;2023-02-21T02:58:04;5.50;;;2.00;;
71080;SDS011;58740;50.672;18.690;2023-02-21T03:00:35;6.40;;;1.90;;
71080;SDS011;58740;50.672;18.690;2023-02-21T03:03:21;5.70;;;1.80;;
71080;SDS011;58740;50.672;18.690;2023-02-21T03:09:02;5.30;;;1.60;;
71080;SDS011;58740;50.672;18.690;2023-02-21T03:11:31;4.80;;;1.30;;
71080;SDS011;58740;50.672;18.690;2023-02-21T03:14:07;5.20;;;1.90;;
71080;SDS011;58740;50.672;18.690;2023-02-21T03:16:53;4.20;;;1.80;;
71080;SDS011;58740;50.672;18.690;2023-02-21T03:19:32;5.90;;;2.20;;
71080;SDS011;58740;50.672;18.690;2023-02-21T03:22:06;6.10;;;2.20;;
71080;SDS011;58740;50.672;18.690;2023-02-21T03:24:39;6.30;;;2.30;;
71080;SDS011;58740;50.672;18.690;2023-02-21T03:27:10;5.10;;;2.00;;
71080;SDS011;58740;50.672;18.690;2023-02-21T03:29:39;6.40;;;1.90;;
71080;SDS011;58740;50.672;18.690;2023-02-21T03:32:12;5.60;;;2.10;;
71080;SDS011;58740;50.672;18.690;2023-02-21T03:34:52;4.50;;;1.70;;
71080;SDS011;58740;50.672;18.690;2023-02-21T03:40:09;4.10;;;1.50;;
71080;SDS011;58740;50.672;18.690;2023-02-21T03:42:42;4.00;;;1.30;;
71080;SDS011;58740;50.672;18.690;2023-02-21T03:45:10;3.90;;;1.20;;
71080;SDS011;58740;50.672;18.690;2023-02-21T03:47:38;4.20;;;1.00;;
71080;SDS011;58740;50.672;18.690;2023-02-21T03:50:06;3.80;;;1.50;;
71080;SDS011;58740;50.672;18.690;2023-02-21T03:52:34;4.00;;;1.30;;
71080;SDS011;58740;50.672;18.690;2023-02-21T03:55:02;3.70;;;1.30;;
71080;SDS011;58740;50.672;18.690;2023-02-21T03:57:30;4.90;;;1.50;;
71080;SDS011;58740;50.672;18.690;2023-02-21T03:59:58;4.50;;;1.30;;
71080;SDS011;58740;50.672;18.690;2023-02-21T04:02:26;4.90;;;1.70;;
71080;SDS011;58740;50.672;18.690;2023-02-21T04:04:54;3.80;;;1.60;;
71080;SDS011;58740;50.672;18.690;2023-02-21T04:07:22;4.70;;;1.80;;
71080;SDS011;58740;50.672;18.690;2023-02-21T04:09:50;3.40;;;1.30;;
71080;SDS011;58740;50.672;18.690;2023-02-21T04:12:18;2.90;;;1.20;;
71080;SDS011;58740;50.672;18.690;2023-02-21T04:14:46;2.70;;;1.20;;
71080;SDS011;58740;50.672;18.690;2023-02-21T04:17:14;4.20;;;1.80;;
71080;SDS011;58740;50.672;18.690;2023-02-21T04:19:43;3.40;;;1.20;;
71080;SDS011;58740;50.672;18.690;2023-02-21T04:22:11;3.80;;;1.30;;
71080;SDS011;58740;50.672;18.690;2023-02-21T04:24:38;3.10;;;1.30;;
71080;SDS011;58740;50.672;18.690;2023-02-21T04:27:06;3.20;;;1.20;;
71080;SDS011;58740;50.672;18.690;2023-02-21T04:29:34;3.00;;;1.00;;
71080;SDS011;58740;50.672;18.690;2023-02-21T04:32:02;3.50;;;1.40;;
71080;SDS011;58740;50.672;18.690;2023-02-21T04:34:30;3.50;;;1.30;;
71080;SDS011;58740;50.672;18.690;2023-02-21T04:36:58;3.90;;;1.30;;
71080;SDS011;58740;50.672;18.690;2023-02-21T04:39:26;6.20;;;1.50;;
71080;SDS011;58740;50.672;18.690;2023-02-21T04:41:53;2.70;;;1.20;;
71080;SDS011;58740;50.672;18.690;2023-02-21T04:44:21;2.80;;;0.80;;
71080;SDS011;58740;50.672;18.690;2023-02-21T04:46:49;3.70;;;1.40;;
71080;SDS011;58740;50.672;18.690;2023-02-21T04:49:17;4.20;;;1.10;;
71080;SDS011;58740;50.672;18.690;2023-02-21T04:51:45;4.00;;;1.00;;
71080;SDS011;58740;50.672;18.690;2023-02-21T04:54:13;3.20;;;1.10;;
71080;SDS011;58740;50.672;18.690;2023-02-21T04:56:40;2.50;;;1.10;;
71080;SDS011;58740;50.672;18.690;2023-02-21T04:59:08;3.40;;;1.00;;
71080;SDS011;58740;50.672;18.690;2023-02-21T05:01:36;4.00;;;1.30;;
71080;SDS011;58740;50.672;18.690;2023-02-21T05:04:04;4.00;;;1.10;;
71080;SDS011;58740;50.672;18.690;2023-02-21T05:06:32;4.60;;;1.50;;
71080;SDS011;58740;50.672;18.690;2023-02-21T05:09:01;6.50;;;2.10;;
71080;SDS011;58740;50.672;18.690;2023-02-21T05:11:32;6.50;;;2.20;;
71080;SDS011;58740;50.672;18.690;2023-02-21T05:14:01;8.10;;;2.90;;
71080;SDS011;58740;50.672;18.690;2023-02-21T05:16:29;8.60;;;2.50;;
71080;SDS011;58740;50.672;18.690;2023-02-21T05:18:57;4.90;;;1.60;;
71080;SDS011;58740;50.672;18.690;2023-02-21T05:21:24;5.60;;;1.60;;
71080;SDS011;58740;50.672;18.690;2023-02-21T05:23:52;4.30;;;1.50;;
71080;SDS011;58740;50.672;18.690;2023-02-21T05:26:26;4.40;;;1.50;;
71080;SDS011;58740;50.672;18.690;2023-02-21T05:28:57;4.80;;;1.90;;
71080;SDS011;58740;50.672;18.690;2023-02-21T05:31:25;2.80;;;1.40;;
71080;SDS011;58740;50.672;18.690;2023-02-21T05:33:53;6.00;;;1.90;;
71080;SDS011;58740;50.672;18.690;2023-02-21T05:36:21;5.60;;;1.40;;
71080;SDS011;58740;50.672;18.690;2023-02-21T05:38:54;3.30;;;1.00;;
71080;SDS011;58740;50.672;18.690;2023-02-21T05:41:23;2.60;;;1.00;;
71080;SDS011;58740;50.672;18.690;2023-02-21T05:43:51;3.60;;;1.00;;
71080;SDS011;58740;50.672;18.690;2023-02-21T05:46:24;4.10;;;1.40;;
71080;SDS011;58740;50.672;18.690;2023-02-21T05:48:53;4.00;;;1.40;;
71080;SDS011;58740;50.672;18.690;2023-02-21T05:51:21;4.20;;;1.10;;
71080;SDS011;58740;50.672;18.690;2023-02-21T05:53:50;6.40;;;1.30;;
71080;SDS011;58740;50.672;18.690;2023-02-21T05:56:19;3.20;;;1.20;;
71080;SDS011;58740;50.672;18.690;2023-02-21T05:58:48;4.20;;;1.60;;
71080;SDS011;58740;50.672;18.690;2023-02-21T06:01:16;2.80;;;1.10;;
71080;SDS011;58740;50.672;18.690;2023-02-21T06:03:44;4.40;;;1.50;;
71080;SDS011;58740;50.672;18.690;2023-02-21T06:06:14;3.50;;;1.60;;
71080;SDS011;58740;50.672;18.690;2023-02-21T06:08:47;5.30;;;1.80;;
71080;SDS011;58740;50.672;18.690;2023-02-21T06:11:23;6.40;;;2.40;;
71080;SDS011;58740;50.672;18.690;2023-02-21T06:13:56;4.50;;;1.60;;
71080;SDS011;58740;50.672;18.690;2023-02-21T06:16:25;3.50;;;1.40;;
71080;SDS011;58740;50.672;18.690;2023-02-21T06:18:56;4.40;;;1.50;;
71080;SDS011;58740;50.672;18.690;2023-02-21T06:21:23;4.80;;;1.90;;
71080;SDS011;58740;50.672;18.690;2023-02-21T06:23:51;4.30;;;1.80;;
71080;SDS011;58740;50.672;18.690;2023-02-21T06:26:20;4.10;;;1.30;;
71080;SDS011;58740;50.672;18.690;2023-02-21T06:28:49;5.50;;;1.90;;
71080;SDS011;58740;50.672;18.690;2023-02-21T06:31:18;5.90;;;1.90;;
71080;SDS011;58740;50.672;18.690;2023-02-21T06:33:48;4.80;;;2.10;;
71080;SDS011;58740;50.672;18.690;2023-02-21T06:36:23;5.00;;;2.00;;
71080;SDS011;58740;50.672;18.690;2023-02-21T06:38:54;4.70;;;1.40;;
71080;SDS011;58740;50.672;18.690;2023-02-21T06:41:26;5.20;;;2.00;;
71080;SDS011;58740;50.672;18.690;2023-02-21T06:43:56;5.60;;;1.70;;
71080;SDS011;58740;50.672;18.690;2023-02-21T06:46:27;5.70;;;1.70;;
71080;SDS011;58740;50.672;18.690;2023-02-21T06:48:57;5.50;;;1.90;;
71080;SDS011;58740;50.672;18.690;2023-02-21T06:51:25;5.60;;;1.90;;
71080;SDS011;58740;50.672;18.690;2023-02-21T06:53:56;6.60;;;2.70;;
71080;SDS011;58740;50.672;18.690;2023-02-21T06:56:25;6.20;;;2.90;;
71080;SDS011;58740;50.672;18.690;2023-02-21T06:58:54;4.90;;;1.90;;
71080;SDS011;58740;50.672;18.690;2023-02-21T07:01:24;6.10;;;2.30;;
71080;SDS011;58740;50.672;18.690;2023-02-21T07:03:56;5.40;;;2.00;;
71080;SDS011;58740;50.672;18.690;2023-02-21T07:06:24;5.60;;;2.20;;
71080;SDS011;58740;50.672;18.690;2023-02-21T07:08:56;7.80;;;3.30;;
71080;SDS011;58740;50.672;18.690;2023-02-21T07:11:24;6.00;;;2.80;;
71080;SDS011;58740;50.672;18.690;2023-02-21T07:13:53;6.70;;;3.50;;
71080;SDS011;58740;50.672;18.690;2023-02-21T07:16:23;6.80;;;3.00;;
71080;SDS011;58740;50.672;18.690;2023-02-21T07:18:52;8.30;;;4.10;;
71080;SDS011;58740;50.672;18.690;2023-02-21T07:21:20;7.80;;;4.00;;
71080;SDS011;58740;50.672;18.690;2023-02-21T07:23:48;6.40;;;3.60;;
71080;SDS011;58740;50.672;18.690;2023-02-21T07:26:16;7.60;;;3.50;;
71080;SDS011;58740;50.672;18.690;2023-02-21T07:28:46;5.80;;;2.80;;
71080;SDS011;58740;50.672;18.690;2023-02-21T07:31:15;6.90;;;3.50;;
71080;SDS011;58740;50.672;18.690;2023-02-21T07:33:46;5.80;;;3.00;;
71080;SDS011;58740;50.672;18.690;2023-02-21T07:36:14;8.20;;;3.90;;
71080;SDS011;58740;50.672;18.690;2023-02-21T07:38:42;7.50;;;3.40;;
71080;SDS011;58740;50.672;18.690;2023-02-21T07:41:12;8.50;;;4.00;;
71080;SDS011;58740;50.672;18.690;2023-02-21T07:43:41;7.90;;;4.70;;
71080;SDS011;58740;50.672;18.690;2023-02-21T07:46:13;7.50;;;3.90;;
71080;SDS011;58740;50.672;18.690;2023-02-21T07:48:43;10.10;;;4.60;;
71080;SDS011;58740;50.672;18.690;2023-02-21T07:51:11;7.70;;;3.70;;
71080;SDS011;58740;50.672;18.690;2023-02-21T07:53:40;10.60;;;5.90;;
71080;SDS011;58740;50.672;18.690;2023-02-21T07:56:07;9.40;;;5.00;;
71080;SDS011;58740;50.672;18.690;2023-02-21T07:58:35;8.10;;;3.40;;
71080;SDS011;58740;50.672;18.690;2023-02-21T08:01:05;8.50;;;4.30;;
71080;SDS011;58740;50.672;18.690;2023-02-21T08:03:33;6.80;;;3.00;;
71080;SDS011;58740;50.672;18.690;2023-02-21T08:06:01;6.20;;;2.90;;
71080;SDS011;58740;50.672;18.690;2023-02-21T08:08:30;5.80;;;3.10;;
71080;SDS011;58740;50.672;18.690;2023-02-21T08:10:58;8.20;;;3.40;;
71080;SDS011;58740;50.672;18.690;2023-02-21T08:13:26;6.40;;;3.30;;
71080;SDS011;58740;50.672;18.690;2023-02-21T08:15:54;8.10;;;3.60;;
71080;SDS011;58740;50.672;18.690;2023-02-21T08:18:23;7.20;;;3.20;;
71080;SDS011;58740;50.672;18.690;2023-02-21T08:20:52;9.00;;;5.50;;
71080;SDS011;58740;50.672;18.690;2023-02-21T08:23:22;10.10;;;5.60;;
71080;SDS011;58740;50.672;18.690;2023-02-21T08:25:50;8.90;;;5.20;;
71080;SDS011;58740;50.672;18.690;2023-02-21T08:28:19;9.20;;;5.30;;
71080;SDS011;58740;50.672;18.690;2023-02-21T08:30:46;8.20;;;4.90;;
71080;SDS011;58740;50.672;18.690;2023-02-21T08:33:14;12.80;;;5.70;;
71080;SDS011;58740;50.672;18.690;2023-02-21T08:35:42;10.60;;;4.80;;
71080;SDS011;58740;50.672;18.690;2023-02-21T08:38:10;9.30;;;5.40;;
71080;SDS011;58740;50.672;18.690;2023-02-21T08:40:38;10.00;;;4.70;;
71080;SDS011;58740;50.672;18.690;2023-02-21T08:43:05;9.20;;;4.40;;
71080;SDS011;58740;50.672;18.690;2023-02-21T08:45:33;9.70;;;4.70;;
71080;SDS011;58740;50.672;18.690;2023-02-21T08:48:01;10.80;;;6.20;;
71080;SDS011;58740;50.672;18.690;2023-02-21T08:50:30;7.50;;;4.30;;
71080;SDS011;58740;50.672;18.690;2023-02-21T08:52:58;8.10;;;4.60;;
71080;SDS011;58740;50.672;18.690;2023-02-21T08:55:26;9.40;;;4.20;;
71080;SDS011;58740;50.672;18.690;2023-02-21T08:57:54;7.80;;;4.10;;
71080;SDS011;58740;50.672;18.690;2023-02-21T09:00:23;9.30;;;4.80;;
71080;SDS011;58740;50.672;18.690;2023-02-21T09:02:56;9.60;;;5.40;;
71080;SDS011;58740;50.672;18.690;2023-02-21T09:05:28;12.70;;;7.30;;
71080;SDS011;58740;50.672;18.690;2023-02-21T09:07:59;7.80;;;3.80;;
71080;SDS011;58740;50.672;18.690;2023-02-21T09:10:30;9.80;;;6.40;;
71080;SDS011;58740;50.672;18.690;2023-02-21T09:13:03;9.20;;;5.40;;
71080;SDS011;58740;50.672;18.690;2023-02-21T09:15:31;9.00;;;5.00;;
71080;SDS011;58740;50.672;18.690;2023-02-21T09:17:59;10.20;;;6.20;;
71080;SDS011;58740;50.672;18.690;2023-02-21T09:20:27;9.90;;;6.00;;
71080;SDS011;58740;50.672;18.690;2023-02-21T09:22:55;8.60;;;5.00;;
71080;SDS011;58740;50.672;18.690;2023-02-21T09:25:24;10.20;;;5.90;;
71080;SDS011;58740;50.672;18.690;2023-02-21T09:27:52;10.70;;;6.70;;
71080;SDS011;58740;50.672;18.690;2023-02-21T09:30:23;9.60;;;5.90;;
71080;SDS011;58740;50.672;18.690;2023-02-21T09:32:55;10.00;;;5.70;;
71080;SDS011;58740;50.672;18.690;2023-02-21T09:35:24;10.40;;;5.00;;
71080;SDS011;58740;50.672;18.690;2023-02-21T09:37:52;9.70;;;4.70;;
71080;SDS011;58740;50.672;18.690;2023-02-21T09:43:17;9.30;;;5.00;;
71080;SDS011;58740;50.672;18.690;2023-02-21T09:45:53;8.90;;;4.60;;
71080;SDS011;58740;50.672;18.690;2023-02-21T09:48:25;9.90;;;5.00;;
71080;SDS011;58740;50.672;18.690;2023-02-21T09:51:04;10.50;;;7.00;;
71080;SDS011;58740;50.672;18.690;2023-02-21T09:53:41;12.00;;;6.70;;
71080;SDS011;58740;50.672;18.690;2023-02-21T09:56:34;9.50;;;5.40;;
71080;SDS011;58740;50.672;18.690;2023-02-21T09:59:12;11.50;;;5.60;;
71080;SDS011;58740;50.672;18.690;2023-02-21T10:16:25;10.60;;;5.40;;
71080;SDS011;58740;50.672;18.690;2023-02-21T10:22:13;13.40;;;7.50;;
71080;SDS011;58740;50.672;18.690;2023-02-21T10:24:48;10.50;;;4.70;;
71080;SDS011;58740;50.672;18.690;2023-02-21T10:27:22;8.60;;;5.00;;
71080;SDS011;58740;50.672;18.690;2023-02-21T10:30:04;8.00;;;3.90;;
71080;SDS011;58740;50.672;18.690;2023-02-21T10:32:37;6.50;;;3.20;;
71080;SDS011;58740;50.672;18.690;2023-02-21T10:35:05;6.30;;;3.20;;
71080;SDS011;58740;50.672;18.690;2023-02-21T10:40:30;10.80;;;5.70;;
71080;SDS011;58740;50.672;18.690;2023-02-21T10:43:07;9.10;;;5.40;;
71080;SDS011;58740;50.672;18.690;2023-02-21T10:46:00;7.80;;;4.40;;
71080;SDS011;58740;50.672;18.690;2023-02-21T10:48:52;12.60;;;8.20;;
71080;SDS011;58740;50.672;18.690;2023-02-21T10:51:33;13.20;;;9.00;;
71080;SDS011;58740;50.672;18.690;2023-02-21T10:54:20;11.00;;;6.10;;
71080;SDS011;58740;50.672;18.690;2023-02-21T10:56:52;10.70;;;6.20;;
71080;SDS011;58740;50.672;18.690;2023-02-21T10:59:28;13.30;;;8.60;;
71080;SDS011;58740;50.672;18.690;2023-02-21T11:02:00;21.80;;;14.50;;
71080;SDS011;58740;50.672;18.690;2023-02-21T11:04:31;19.40;;;12.40;;
71080;SDS011;58740;50.672;18.690;2023-02-21T11:07:07;18.90;;;12.30;;
71080;SDS011;58740;50.672;18.690;2023-02-21T11:14:44;10.50;;;5.40;;
71080;SDS011;58740;50.672;18.690;2023-02-21T11:17:31;5.80;;;2.90;;
71080;SDS011;58740;50.672;18.690;2023-02-21T11:27:38;6.30;;;3.10;;
71080;SDS011;58740;50.672;18.690;2023-02-21T11:30:19;14.00;;;6.60;;
71080;SDS011;58740;50.672;18.690;2023-02-21T11:32:51;14.90;;;7.60;;
71080;SDS011;58740;50.672;18.690;2023-02-21T11:35:29;14.20;;;9.00;;
71080;SDS011;58740;50.672;18.690;2023-02-21T11:38:04;13.90;;;8.10;;
71080;SDS011;58740;50.672;18.690;2023-02-21T11:40:41;14.60;;;9.20;;
71080;SDS011;58740;50.672;18.690;2023-02-21T11:43:22;9.10;;;5.60;;
71080;SDS011;58740;50.672;18.690;2023-02-21T11:46:14;11.80;;;6.30;;
71080;SDS011;58740;50.672;18.690;2023-02-21T11:54:58;17.80;;;10.20;;
71080;SDS011;58740;50.672;18.690;2023-02-21T12:00:29;8.60;;;4.30;;
71080;SDS011;58740;50.672;18.690;2023-02-21T12:07:02;4.70;;;1.80;;
71080;SDS011;58740;50.672;18.690;2023-02-21T12:10:08;5.00;;;1.60;;
71080;SDS011;58740;50.672;18.690;2023-02-21T12:12:57;6.10;;;2.20;;
71080;SDS011;58740;50.672;18.690;2023-02-21T12:30:57;5.10;;;1.70;;
71080;SDS011;58740;50.672;18.690;2023-02-21T12:42:12;5.20;;;2.50;;
71080;SDS011;58740;50.672;18.690;2023-02-21T12:48:21;5.50;;;2.20;;
71080;SDS011;58740;50.672;18.690;2023-02-21T12:50:55;5.10;;;1.80;;
71080;SDS011;58740;50.672;18.690;2023-02-21T12:53:57;4.40;;;1.80;;
71080;SDS011;58740;50.672;18.690;2023-02-21T12:56:45;5.10;;;2.20;;
71080;SDS011;58740;50.672;18.690;2023-02-21T12:59:27;4.80;;;1.90;;
71080;SDS011;58740;50.672;18.690;2023-02-21T13:02:15;6.80;;;2.70;;
71080;SDS011;58740;50.672;18.690;2023-02-21T13:04:54;5.50;;;3.00;;
71080;SDS011;58740;50.672;18.690;2023-02-21T13:07:40;5.30;;;2.40;;
71080;SDS011;58740;50.672;18.690;2023-02-21T13:10:23;6.40;;;2.20;;
71080;SDS011;58740;50.672;18.690;2023-02-21T13:13:00;7.10;;;3.10;;
71080;SDS011;58740;50.672;18.690;2023-02-21T13:15:39;7.10;;;3.40;;
71080;SDS011;58740;50.672;18.690;2023-02-21T13:18:25;4.20;;;2.00;;
71080;SDS011;58740;50.672;18.690;2023-02-21T13:21:04;4.40;;;1.80;;
71080;SDS011;58740;50.672;18.690;2023-02-21T13:23:58;5.40;;;2.10;;
71080;SDS011;58740;50.672;18.690;2023-02-21T13:29:02;14.60;;;7.40;;
71080;SDS011;58740;50.672;18.690;2023-02-21T13:31:42;7.90;;;4.00;;
71080;SDS011;58740;50.672;18.690;2023-02-21T13:34:17;8.60;;;3.50;;
71080;SDS011;58740;50.672;18.690;2023-02-21T13:36:50;4.70;;;2.10;;
71080;SDS011;58740;50.672;18.690;2023-02-21T13:39:27;7.50;;;3.70;;
71080;SDS011;58740;50.672;18.690;2023-02-21T13:42:09;6.10;;;2.80;;
71080;SDS011;58740;50.672;18.690;2023-02-21T13:53:20;5.40;;;2.60;;
71080;SDS011;58740;50.672;18.690;2023-02-21T13:58:30;7.20;;;3.60;;
71080;SDS011;58740;50.672;18.690;2023-02-21T14:03:56;8.40;;;3.50;;
71080;SDS011;58740;50.672;18.690;2023-02-21T14:06:31;5.80;;;2.10;;
71080;SDS011;58740;50.672;18.690;2023-02-21T14:09:09;6.50;;;2.70;;
71080;SDS011;58740;50.672;18.690;2023-02-21T14:11:49;6.30;;;2.70;;
71080;SDS011;58740;50.672;18.690;2023-02-21T14:14:23;7.10;;;3.00;;
71080;SDS011;58740;50.672;18.690;2023-02-21T14:16:58;7.80;;;2.80;;
71080;SDS011;58740;50.672;18.690;2023-02-21T14:22:01;16.00;;;6.50;;
71080;SDS011;58740;50.672;18.690;2023-02-21T14:24:33;16.10;;;6.70;;
71080;SDS011;58740;50.672;18.690;2023-02-21T14:27:29;13.00;;;5.00;;
71080;SDS011;58740;50.672;18.690;2023-02-21T14:49:52;5.90;;;1.70;;
71080;SDS011;58740;50.672;18.690;2023-02-21T14:55:34;6.30;;;3.70;;
71080;SDS011;58740;50.672;18.690;2023-02-21T14:58:35;5.70;;;2.20;;
71080;SDS011;58740;50.672;18.690;2023-02-21T15:04:04;7.40;;;2.80;;
71080;SDS011;58740;50.672;18.690;2023-02-21T15:06:38;9.40;;;4.60;;
71080;SDS011;58740;50.672;18.690;2023-02-21T15:09:18;5.20;;;2.40;;
71080;SDS011;58740;50.672;18.690;2023-02-21T15:11:48;6.20;;;1.90;;
71080;SDS011;58740;50.672;18.690;2023-02-21T15:14:26;6.50;;;2.00;;
71080;SDS011;58740;50.672;18.690;2023-02-21T15:17:16;6.30;;;2.20;;
71080;SDS011;58740;50.672;18.690;2023-02-21T15:20:15;9.00;;;3.60;;
71080;SDS011;58740;50.672;18.690;2023-02-21T15:22:44;9.80;;;4.00;;
71080;SDS011;58740;50.672;18.690;2023-02-21T15:25:15;10.60;;;3.90;;
71080;SDS011;58740;50.672;18.690;2023-02-21T15:30:32;7.70;;;2.80;;
71080;SDS011;58740;50.672;18.690;2023-02-21T15:33:17;9.90;;;5.30;;
71080;SDS011;58740;50.672;18.690;2023-02-21T15:35:58;16.40;;;6.70;;
71080;SDS011;58740;50.672;18.690;2023-02-21T15:55:27;11.10;;;4.90;;
71080;SDS011;58740;50.672;18.690;2023-02-21T15:58:00;12.80;;;5.00;;
71080;SDS011;58740;50.672;18.690;2023-02-21T16:00:32;11.50;;;4.60;;
71080;SDS011;58740;50.672;18.690;2023-02-21T16:03:27;12.10;;;4.50;;
71080;SDS011;58740;50.672;18.690;2023-02-21T16:06:24;32.80;;;17.60;;
71080;SDS011;58740;50.672;18.690;2023-02-21T16:11:48;12.30;;;5.50;;
71080;SDS011;58740;50.672;18.690;2023-02-21T16:19:50;9.00;;;4.30;;
71080;SDS011;58740;50.672;18.690;2023-02-21T16:22:36;9.90;;;3.80;;
71080;SDS011;58740;50.672;18.690;2023-02-21T16:25:24;12.80;;;5.90;;
71080;SDS011;58740;50.672;18.690;2023-02-21T16:27:56;11.10;;;5.50;;
71080;SDS011;58740;50.672;18.690;2023-02-21T16:30:27;12.50;;;6.20;;
71080;SDS011;58740;50.672;18.690;2023-02-21T16:33:02;19.60;;;7.60;;
71080;SDS011;58740;50.672;18.690;2023-02-21T16:35:32;17.30;;;8.50;;
71080;SDS011;58740;50.672;18.690;2023-02-21T16:38:00;13.50;;;5.50;;
71080;SDS011;58740;50.672;18.690;2023-02-21T16:40:33;12.90;;;5.00;;
71080;SDS011;58740;50.672;18.690;2023-02-21T16:43:03;11.70;;;5.10;;
71080;SDS011;58740;50.672;18.690;2023-02-21T16:45:32;13.20;;;5.50;;
71080;SDS011;58740;50.672;18.690;2023-02-21T16:48:05;11.90;;;3.90;;
71080;SDS011;58740;50.672;18.690;2023-02-21T16:50:36;18.10;;;6.30;;
71080;SDS011;58740;50.672;18.690;2023-02-21T16:53:05;15.90;;;7.00;;
71080;SDS011;58740;50.672;18.690;2023-02-21T16:55:34;17.80;;;7.60;;
71080;SDS011;58740;50.672;18.690;2023-02-21T16:58:05;17.70;;;7.70;;
71080;SDS011;58740;50.672;18.690;2023-02-21T17:00:42;22.00;;;7.60;;
71080;SDS011;58740;50.672;18.690;2023-02-21T17:03:10;27.40;;;11.00;;
71080;SDS011;58740;50.672;18.690;2023-02-21T17:05:38;27.50;;;9.30;;
71080;SDS011;58740;50.672;18.690;2023-02-21T17:08:06;21.50;;;7.00;;
71080;SDS011;58740;50.672;18.690;2023-02-21T17:10:34;23.20;;;7.90;;
71080;SDS011;58740;50.672;18.690;2023-02-21T17:13:02;18.10;;;7.10;;
71080;SDS011;58740;50.672;18.690;2023-02-21T17:15:30;19.10;;;7.60;;
71080;SDS011;58740;50.672;18.690;2023-02-21T17:17:59;21.60;;;9.50;;
71080;SDS011;58740;50.672;18.690;2023-02-21T17:20:27;21.30;;;6.90;;
71080;SDS011;58740;50.672;18.690;2023-02-21T17:22:56;20.30;;;8.20;;
71080;SDS011;58740;50.672;18.690;2023-02-21T17:25:25;22.00;;;8.10;;
71080;SDS011;58740;50.672;18.690;2023-02-21T17:27:54;20.10;;;6.80;;
71080;SDS011;58740;50.672;18.690;2023-02-21T17:30:23;22.50;;;8.40;;
71080;SDS011;58740;50.672;18.690;2023-02-21T17:32:52;26.60;;;8.90;;
71080;SDS011;58740;50.672;18.690;2023-02-21T17:35:20;31.60;;;10.50;;
71080;SDS011;58740;50.672;18.690;2023-02-21T17:37:49;31.50;;;11.50;;
71080;SDS011;58740;50.672;18.690;2023-02-21T17:40:19;20.00;;;9.20;;
71080;SDS011;58740;50.672;18.690;2023-02-21T17:42:47;21.10;;;9.80;;
71080;SDS011;58740;50.672;18.690;2023-02-21T17:45:17;16.30;;;7.60;;
71080;SDS011;58740;50.672;18.690;2023-02-21T17:47:47;18.50;;;8.30;;
71080;SDS011;58740;50.672;18.690;2023-02-21T17:50:17;20.00;;;6.80;;
71080;SDS011;58740;50.672;18.690;2023-02-21T17:52:45;24.90;;;7.50;;
71080;SDS011;58740;50.672;18.690;2023-02-21T17:55:20;29.10;;;9.70;;
71080;SDS011;58740;50.672;18.690;2023-02-21T17:57:52;13.80;;;4.60;;
71080;SDS011;58740;50.672;18.690;2023-02-21T18:00:25;17.90;;;5.20;;
71080;SDS011;58740;50.672;18.690;2023-02-21T18:02:55;12.90;;;4.00;;
71080;SDS011;58740;50.672;18.690;2023-02-21T18:05:23;15.50;;;4.20;;
71080;SDS011;58740;50.672;18.690;2023-02-21T18:07:52;13.80;;;3.90;;
71080;SDS011;58740;50.672;18.690;2023-02-21T18:10:22;14.10;;;4.30;;
71080;SDS011;58740;50.672;18.690;2023-02-21T18:12:52;17.50;;;5.10;;